createdAt,value
2023-03-04T00:02:09.989Z,102831.16
2023-03-04T00:04:36.543Z,102823.22
2023-03-04T00:07:03.100Z,102827.72
2023-03-04T00:09:29.639Z,102831.34
2023-03-04T00:11:56.157Z,102826.97
2023-03-04T00:14:22.784Z,102832.31
2023-03-04T00:16:49.421Z,102827.94
2023-03-04T00:19:16.051Z,102832.44
2023-03-04T00:21:42.518Z,102826.22
2023-03-04T00:24:09.071Z,102832.50
2023-03-04T00:26:35.589Z,102833.47
2023-03-04T00:29:02.099Z,102828.13
2023-03-04T00:31:28.622Z,102825.56
2023-03-04T00:33:55.136Z,102829.19
2023-03-04T00:36:21.706Z,102833.59
2023-03-04T00:38:48.183Z,102828.31
2023-03-04T00:41:14.660Z,102826.59
2023-03-04T00:43:41.165Z,102827.56
2023-03-04T00:46:08.142Z,102831.94
2023-03-04T00:48:34.748Z,102831.22
2023-03-04T00:51:01.286Z,102827.69
2023-03-04T00:53:27.869Z,102832.16
2023-03-04T00:55:54.346Z,102830.44
2023-03-04T00:58:20.890Z,102831.28
2023-03-04T01:00:47.561Z,102832.25
2023-03-04T01:03:14.096Z,102830.53
2023-03-04T01:05:40.746Z,102831.50
2023-03-04T01:08:07.258Z,102835.97
2023-03-04T01:10:34.189Z,102828.91
2023-03-04T01:13:00.731Z,102832.44
2023-03-04T01:15:27.279Z,102832.56
2023-03-04T01:17:54.035Z,102826.34
2023-03-04T01:20:20.939Z,102822.81
2023-03-04T01:22:47.615Z,102830.00
2023-03-04T01:25:14.179Z,102821.06
2023-03-04T01:27:40.690Z,102824.72
2023-03-04T01:30:08.004Z,102821.06
2023-03-04T01:32:34.719Z,102817.63
2023-03-04T01:35:01.261Z,102818.50
2023-03-04T01:37:27.761Z,102809.69
2023-03-04T01:39:54.373Z,102807.97
2023-03-04T01:42:24.250Z,102807.97
2023-03-04T01:44:51.857Z,102806.16
2023-03-04T01:47:19.684Z,102798.22
2023-03-04T01:49:53.100Z,102788.47
2023-03-04T01:52:19.670Z,102794.69
2023-03-04T01:54:46.374Z,102788.56
2023-03-04T01:57:21.949Z,102785.03
2023-03-04T02:00:22.902Z,102782.44
2023-03-04T02:02:53.032Z,102777.94
2023-03-04T02:05:20.569Z,102773.44
2023-03-04T02:07:47.090Z,102770.88
2023-03-04T02:10:13.840Z,102767.34
2023-03-04T02:12:40.762Z,102769.13
2023-03-04T02:15:08.253Z,102764.75
2023-03-04T02:17:34.716Z,102761.22
2023-03-04T02:20:07.043Z,102757.69
2023-03-04T02:22:43.629Z,102755.13
2023-03-04T02:25:15.816Z,102753.38
2023-03-04T02:27:42.391Z,102747.06
2023-03-04T02:30:11.681Z,102748.97
2023-03-04T02:32:38.298Z,102750.81
2023-03-04T02:35:05.330Z,102750.81
2023-03-04T02:37:32.051Z,102747.28
2023-03-04T02:39:59.545Z,102743.72
2023-03-04T02:42:26.042Z,102740.19
2023-03-04T02:45:00.375Z,102726.88
2023-03-04T02:47:26.899Z,102731.28
2023-03-04T02:49:53.569Z,102732.25
2023-03-04T02:52:23.351Z,102725.19
2023-03-04T02:54:49.892Z,102725.19
2023-03-04T02:57:16.410Z,102727.84
2023-03-04T02:59:43.251Z,102729.69
2023-03-04T03:02:10.291Z,102727.97
2023-03-04T03:04:38.915Z,102730.66
2023-03-04T03:07:06.117Z,102728.91
2023-03-04T03:09:32.626Z,102727.19
2023-03-04T03:11:59.247Z,102722.69
2023-03-04T03:14:25.798Z,102723.66
2023-03-04T03:16:52.349Z,102717.44
2023-03-04T03:19:18.907Z,102716.59
2023-03-04T03:21:45.409Z,102715.72
2023-03-04T03:24:11.958Z,102713.91
2023-03-04T03:26:39.994Z,102711.25
2023-03-04T03:29:06.589Z,102711.25
2023-03-04T03:31:33.269Z,102712.13
2023-03-04T03:33:59.801Z,102714.81
2023-03-04T03:36:26.401Z,102711.28
2023-03-04T03:38:52.939Z,102706.91
2023-03-04T03:41:19.506Z,102708.72
2023-03-04T03:43:46.023Z,102706.91
2023-03-04T03:46:12.570Z,102707.88
2023-03-04T03:48:39.108Z,102712.25
2023-03-04T03:51:05.812Z,102708.72
2023-03-04T03:53:32.297Z,102711.41
2023-03-04T03:55:59.209Z,102713.22
2023-03-04T03:58:26.955Z,102709.69
2023-03-04T04:00:53.504Z,102709.69
2023-03-04T04:03:20.165Z,102713.22
2023-03-04T04:05:46.669Z,102715.03
2023-03-04T04:08:14.669Z,102714.19
2023-03-04T04:10:42.012Z,102712.38
2023-03-04T04:13:09.158Z,102717.78
2023-03-04T04:15:36.679Z,102715.97
2023-03-04T04:18:03.189Z,102714.25
2023-03-04T04:20:29.654Z,102717.78
2023-03-04T04:22:56.225Z,102723.25
2023-03-04T04:25:22.903Z,102723.25
2023-03-04T04:27:49.418Z,102727.75
2023-03-04T04:30:16.193Z,102724.22
2023-03-04T04:32:42.686Z,102710.91
2023-03-04T04:35:09.418Z,102723.44
2023-03-04T04:37:35.979Z,102710.91
2023-03-04T04:40:03.769Z,102714.56
2023-03-04T04:42:30.552Z,102723.56
2023-03-04T04:44:57.754Z,102713.78
2023-03-04T04:47:24.519Z,102717.34
2023-03-04T04:49:51.815Z,102720.13
2023-03-04T04:52:18.396Z,102725.47
2023-03-04T04:54:44.972Z,102712.19
2023-03-04T04:57:11.534Z,102720.13
2023-03-04T04:59:38.122Z,102714.88
2023-03-04T05:02:04.726Z,102722.03
2023-03-04T05:04:31.264Z,102717.63
2023-03-04T05:06:57.842Z,102715.84
2023-03-04T05:09:24.550Z,102714.94
2023-03-04T05:11:51.086Z,102714.09
2023-03-04T05:14:17.666Z,102722.13
2023-03-04T05:16:44.211Z,102715.91
2023-03-04T05:19:10.880Z,102714.19
2023-03-04T05:21:37.756Z,102719.56
2023-03-04T05:24:04.460Z,102724.13
2023-03-04T05:26:31.004Z,102727.59
2023-03-04T05:28:57.620Z,102723.19
2023-03-04T05:31:24.231Z,102724.13
2023-03-04T05:33:50.783Z,102729.47
2023-03-04T05:36:17.315Z,102723.28
2023-03-04T05:38:43.881Z,102733.13
2023-03-04T05:41:10.471Z,102730.44
2023-03-04T05:43:38.371Z,102731.41
2023-03-04T05:46:05.196Z,102734.94
2023-03-04T05:48:31.804Z,102736.75
2023-03-04T05:51:00.905Z,102732.38
2023-03-04T05:53:28.912Z,102730.56
2023-03-04T05:55:55.699Z,102731.41
2023-03-04T05:58:22.674Z,102726.06
2023-03-04T06:00:49.285Z,102733.22
2023-03-04T06:03:18.189Z,102728.75
2023-03-04T06:05:45.476Z,102727.03
2023-03-04T06:08:13.031Z,102716.31
2023-03-04T06:10:41.249Z,102718.13
2023-03-04T06:13:08.049Z,102720.91
2023-03-04T06:15:34.821Z,102723.56
2023-03-04T06:18:01.372Z,102717.25
2023-03-04T06:20:27.965Z,102720.91
2023-03-04T06:22:54.500Z,102713.84
2023-03-04T06:25:21.009Z,102720.03
2023-03-04T06:27:49.723Z,102726.34
2023-03-04T06:30:17.322Z,102718.31
2023-03-04T06:32:47.981Z,102724.66
2023-03-04T06:35:15.993Z,102725.50
2023-03-04T06:37:43.529Z,102726.44
2023-03-04T06:40:11.089Z,102730.00
2023-03-04T06:42:38.186Z,102726.44
2023-03-04T06:45:05.094Z,102727.31
2023-03-04T06:47:31.612Z,102731.78
2023-03-04T06:49:58.419Z,102732.75
2023-03-04T06:52:25.114Z,102735.44
2023-03-04T06:54:51.763Z,102731.03
2023-03-04T06:57:18.267Z,102737.25
2023-03-04T06:59:44.736Z,102738.22
2023-03-04T07:02:12.453Z,102733.72
2023-03-04T07:04:39.447Z,102744.41
2023-03-04T07:07:06.175Z,102741.75
2023-03-04T07:09:32.724Z,102749.78
2023-03-04T07:11:59.307Z,102742.72
2023-03-04T07:14:27.779Z,102737.34
2023-03-04T07:16:54.389Z,102738.22
2023-03-04T07:19:21.013Z,102739.94
2023-03-04T07:21:47.539Z,102745.28
2023-03-04T07:24:14.387Z,102746.91
2023-03-04T07:26:40.964Z,102738.88
2023-03-04T07:29:07.603Z,102743.28
2023-03-04T07:31:35.300Z,102744.97
2023-03-04T07:34:07.213Z,102736.94
2023-03-04T07:36:36.041Z,102743.09
2023-03-04T07:39:03.709Z,102748.31
2023-03-04T07:41:31.068Z,102746.50
2023-03-04T07:43:58.687Z,102744.69
2023-03-04T07:46:26.037Z,102751.78
2023-03-04T07:48:52.734Z,102753.38
2023-03-04T07:51:21.142Z,102751.56
2023-03-04T07:53:50.370Z,102757.69
2023-03-04T07:56:19.548Z,102754.06
2023-03-04T07:58:46.565Z,102753.09
2023-03-04T08:01:18.923Z,102761.03
2023-03-04T08:03:45.652Z,102759.97
2023-03-04T08:06:14.930Z,102757.28
2023-03-04T08:08:43.063Z,102764.47
2023-03-04T08:11:20.150Z,102759.03
2023-03-04T08:13:47.279Z,102775.00
2023-03-04T08:16:16.461Z,102774.13
2023-03-04T08:18:45.246Z,102768.78
2023-03-04T08:21:13.742Z,102774.03
2023-03-04T08:23:42.443Z,102770.41
2023-03-04T08:26:11.397Z,102773.09
2023-03-04T08:28:38.353Z,102777.47
2023-03-04T08:31:05.215Z,102780.03
2023-03-04T08:33:32.389Z,102769.25
2023-03-04T08:35:58.982Z,102773.56
2023-03-04T08:38:25.948Z,102770.81
2023-03-04T08:40:56.640Z,102776.91
2023-03-04T08:43:25.706Z,102780.25
2023-03-04T08:45:54.399Z,102774.78
2023-03-04T08:48:22.327Z,102776.44
2023-03-04T08:50:49.509Z,102778.91
2023-03-04T08:53:16.993Z,102771.75
2023-03-04T08:55:43.705Z,102768.09
2023-03-04T08:58:11.504Z,102764.44
2023-03-04T09:00:43.000Z,102770.66
2023-03-04T09:03:12.376Z,102772.28
2023-03-04T09:05:39.121Z,102766.94
2023-03-04T09:08:05.779Z,102760.53
2023-03-04T09:10:32.306Z,102766.81
2023-03-04T09:12:59.203Z,102767.72
2023-03-04T09:15:25.778Z,102764.06
2023-03-04T09:17:52.270Z,102766.75
2023-03-04T09:20:19.710Z,102768.56
2023-03-04T09:22:46.737Z,102765.03
2023-03-04T09:25:15.431Z,102763.09
2023-03-04T09:27:42.000Z,102758.69
2023-03-04T09:30:09.526Z,102758.59
2023-03-04T09:32:36.764Z,102757.75
2023-03-04T09:35:04.402Z,102756.78
2023-03-04T09:37:30.958Z,102758.50
2023-03-04T09:39:57.451Z,102748.66
2023-03-04T09:42:47.649Z,102758.50
2023-03-04T09:45:19.740Z,102754.75
2023-03-04T09:47:48.453Z,102750.25
2023-03-04T09:50:15.028Z,102753.81
2023-03-04T09:52:56.440Z,102754.75
2023-03-04T09:55:35.650Z,102752.94
2023-03-04T09:58:32.918Z,102754.75
2023-03-04T10:01:12.462Z,102748.34
2023-03-04T10:03:48.317Z,102742.88
2023-03-04T10:06:20.539Z,102738.19
2023-03-04T10:09:13.819Z,102739.69
2023-03-04T10:12:02.822Z,102732.44
2023-03-04T10:14:47.690Z,102734.78
2023-03-04T10:17:17.230Z,102731.91
2023-03-04T10:20:21.205Z,102724.72
2023-03-04T10:22:53.991Z,102727.19
2023-03-04T10:25:20.448Z,102725.16
2023-03-04T10:27:58.033Z,102726.91
2023-03-04T10:30:30.614Z,102728.50
2023-03-04T10:32:57.293Z,102724.75
2023-03-04T10:35:33.421Z,102727.44
2023-03-04T10:38:03.418Z,102722.94
2023-03-04T10:40:36.694Z,102727.34
2023-03-04T10:43:08.067Z,102726.47
2023-03-04T10:45:40.253Z,102722.94
2023-03-04T10:48:07.525Z,102724.75
2023-03-04T10:50:34.098Z,102725.72
2023-03-04T10:53:01.866Z,102731.09
2023-03-04T10:55:30.359Z,102724.00
2023-03-04T10:58:05.992Z,102723.06
2023-03-04T11:00:37.013Z,102719.28
2023-03-04T11:03:22.449Z,102709.53
2023-03-04T11:05:49.062Z,102714.59
2023-03-04T11:08:21.200Z,102710.94
2023-03-04T11:10:50.067Z,102709.88
2023-03-04T11:13:25.923Z,102710.66
2023-03-04T11:15:58.464Z,102703.34
2023-03-04T11:18:31.549Z,102698.84
2023-03-04T11:21:00.768Z,102696.06
2023-03-04T11:23:43.964Z,102693.47
2023-03-04T11:26:16.321Z,102701.50
2023-03-04T11:29:05.896Z,102701.63
2023-03-04T11:31:38.373Z,102706.13
2023-03-04T11:34:27.508Z,102704.50
2023-03-04T11:37:10.177Z,102704.72
2023-03-04T11:39:46.391Z,102705.69
2023-03-04T11:42:20.879Z,102713.00
2023-03-04T11:44:47.439Z,102703.22
2023-03-04T11:47:44.378Z,102705.16
2023-03-04T11:50:21.608Z,102696.25
2023-03-04T11:53:00.900Z,102695.41
2023-03-04T11:55:40.679Z,102686.38
2023-03-04T11:58:36.852Z,102684.44
2023-03-04T12:01:15.187Z,102682.53
2023-03-04T12:04:02.897Z,102675.22
2023-03-04T12:06:49.534Z,102677.81
2023-03-04T12:09:21.869Z,102680.50
2023-03-04T12:12:25.380Z,102686.72
2023-03-04T12:15:33.866Z,102678.75
2023-03-04T12:18:19.363Z,102685.94
2023-03-04T12:21:12.132Z,102683.38
2023-03-04T12:24:03.404Z,102675.47
2023-03-04T12:26:50.104Z,102684.44
2023-03-04T12:29:53.836Z,102681.88
2023-03-04T12:32:39.254Z,102680.16
2023-03-04T12:35:27.083Z,102681.09
2023-03-04T12:38:25.933Z,102679.41
2023-03-04T12:41:02.913Z,102664.28
2023-03-04T12:43:50.739Z,102660.97
2023-03-04T12:46:41.908Z,102649.25
2023-03-04T12:49:39.306Z,102656.44
2023-03-04T12:52:21.700Z,102646.78
2023-03-04T12:54:51.600Z,102645.00
2023-03-04T12:57:23.798Z,102644.09
2023-03-04T13:00:16.793Z,102639.72
2023-03-04T13:02:46.288Z,102629.56
2023-03-04T13:05:21.487Z,102625.78
2023-03-04T13:07:56.704Z,102631.06
2023-03-04T13:10:23.805Z,102627.31
2023-03-04T13:12:56.446Z,102629.00
2023-03-04T13:15:23.046Z,102621.84
2023-03-04T13:18:00.330Z,102629.97
2023-03-04T13:20:42.589Z,102625.38
2023-03-04T13:23:09.050Z,102627.22
2023-03-04T13:25:43.938Z,102623.66
2023-03-04T13:28:10.537Z,102622.78
2023-03-04T13:30:39.676Z,102619.25
2023-03-04T13:33:09.183Z,102611.34
2023-03-04T13:35:47.641Z,102611.41
2023-03-04T13:38:24.150Z,102612.31
2023-03-04T13:41:16.764Z,102619.47
2023-03-04T13:43:53.621Z,102609.63
2023-03-04T13:46:20.281Z,102611.41
2023-03-04T13:48:49.855Z,102608.66
2023-03-04T13:51:30.535Z,102604.34
2023-03-04T13:54:00.222Z,102606.06
2023-03-04T13:56:28.699Z,102598.91
2023-03-04T13:59:21.846Z,102595.56
2023-03-04T14:01:52.677Z,102595.47
2023-03-04T14:04:24.946Z,102595.47
2023-03-04T14:06:54.246Z,102594.72
2023-03-04T14:09:24.286Z,102592.91
2023-03-04T14:11:52.621Z,102592.91
2023-03-04T14:14:24.060Z,102584.00
2023-03-04T14:16:55.176Z,102582.19
2023-03-04T14:19:29.490Z,102584.09
2023-03-04T14:21:57.176Z,102584.09
2023-03-04T14:24:24.341Z,102589.44
2023-03-04T14:27:04.792Z,102580.69
2023-03-04T14:29:31.334Z,102577.88
2023-03-04T14:31:58.896Z,102576.16
2023-03-04T14:34:36.375Z,102577.09
2023-03-04T14:37:05.594Z,102566.38
2023-03-04T14:39:35.790Z,102569.97
2023-03-04T14:42:10.495Z,102566.50
2023-03-04T14:44:48.978Z,102564.69
2023-03-04T14:47:27.647Z,102571.00
2023-03-04T14:49:54.675Z,102565.66
2023-03-04T14:52:35.478Z,102563.09
2023-03-04T14:55:14.241Z,102572.94
2023-03-04T14:57:47.964Z,102561.34
2023-03-04T15:00:15.725Z,102573.16
2023-03-04T15:02:43.186Z,102573.91
2023-03-04T15:05:26.279Z,102571.41
2023-03-04T15:07:56.892Z,102563.38
2023-03-04T15:10:32.661Z,102559.13
2023-03-04T15:13:01.947Z,102556.44
2023-03-04T15:15:33.305Z,102558.34
2023-03-04T15:18:02.236Z,102558.34
2023-03-04T15:20:31.724Z,102559.44
2023-03-04T15:23:01.303Z,102560.28
2023-03-04T15:25:28.209Z,102561.25
2023-03-04T15:27:54.955Z,102556.84
2023-03-04T15:30:24.098Z,102551.47
2023-03-04T15:32:50.653Z,102547.09
2023-03-04T15:35:18.852Z,102552.47
2023-03-04T15:37:47.174Z,102546.25
2023-03-04T15:40:25.860Z,102547.22
2023-03-04T15:42:52.429Z,102548.91
2023-03-04T15:45:43.777Z,102551.59
2023-03-04T15:48:12.748Z,102548.81
2023-03-04T15:50:45.330Z,102537.22
2023-03-04T15:53:27.200Z,102531.16
2023-03-04T15:55:54.255Z,102542.59
2023-03-04T15:58:20.999Z,102533.69
2023-03-04T16:00:47.760Z,102530.16
2023-03-04T16:03:16.962Z,102537.34
2023-03-04T16:05:44.770Z,102535.53
2023-03-04T16:08:14.641Z,102527.50
2023-03-04T16:10:43.743Z,102520.44
2023-03-04T16:13:15.031Z,102528.47
2023-03-04T16:15:43.217Z,102527.50
2023-03-04T16:18:11.813Z,102523.09
2023-03-04T16:20:40.570Z,102523.97
2023-03-04T16:23:13.019Z,102523.84
2023-03-04T16:25:42.427Z,102524.81
2023-03-04T16:28:11.313Z,102516.78
2023-03-04T16:30:37.921Z,102521.28
2023-03-04T16:33:04.521Z,102520.44
2023-03-04T16:35:34.347Z,102516.00
2023-03-04T16:38:00.965Z,102516.91
2023-03-04T16:40:30.515Z,102513.31
2023-03-04T16:42:57.668Z,102514.22
2023-03-04T16:45:26.962Z,102519.66
2023-03-04T16:47:54.170Z,102518.69
2023-03-04T16:50:27.100Z,102513.44
2023-03-04T16:52:55.108Z,102518.81
2023-03-04T16:55:25.170Z,102514.41
2023-03-04T16:57:52.251Z,102509.91
2023-03-04T17:00:20.805Z,102513.56
2023-03-04T17:02:55.995Z,102511.81
2023-03-04T17:05:24.356Z,102510.03
2023-03-04T17:07:51.101Z,102510.97
2023-03-04T17:10:17.932Z,102514.63
2023-03-04T17:12:44.723Z,102519.13
2023-03-04T17:15:13.527Z,102513.78
2023-03-04T17:17:41.243Z,102512.91
2023-03-04T17:20:11.077Z,102514.75
2023-03-04T17:22:37.648Z,102515.69
2023-03-04T17:25:04.481Z,102511.41
2023-03-04T17:27:31.709Z,102528.44
2023-03-04T17:29:58.310Z,102528.44
2023-03-04T17:32:27.430Z,102528.53
2023-03-04T17:34:55.891Z,102526.84
2023-03-04T17:37:22.543Z,102538.59
2023-03-04T17:39:49.047Z,102532.41
2023-03-04T17:42:15.573Z,102539.56
2023-03-04T17:44:42.295Z,102538.72
2023-03-04T17:47:08.862Z,102543.31
2023-03-04T17:49:35.405Z,102533.44
2023-03-04T17:52:03.892Z,102540.75
2023-03-04T17:54:31.060Z,102542.56
2023-03-04T17:56:57.773Z,102548.91
2023-03-04T17:59:24.334Z,102542.66
2023-03-04T18:01:53.994Z,102555.19
2023-03-04T18:04:21.457Z,102548.13
2023-03-04T18:06:47.963Z,102557.03
2023-03-04T18:09:14.708Z,102553.50
2023-03-04T18:11:42.409Z,102565.06
2023-03-04T18:14:09.525Z,102569.56
2023-03-04T18:16:36.127Z,102559.81
2023-03-04T18:19:02.957Z,102567.00
2023-03-04T18:21:30.296Z,102565.16
2023-03-04T18:23:57.569Z,102561.72
2023-03-04T18:26:25.478Z,102565.25
2023-03-04T18:28:53.480Z,102560.00
2023-03-04T18:31:21.806Z,102564.50
2023-03-04T18:33:48.828Z,102555.63
2023-03-04T18:36:15.776Z,102546.75
2023-03-04T18:38:42.762Z,102545.00
2023-03-04T18:41:12.306Z,102545.97
2023-03-04T18:43:39.297Z,102545.13
2023-03-04T18:46:10.577Z,102543.41
2023-03-04T18:48:45.455Z,102549.69
2023-03-04T18:51:12.025Z,102547.03
2023-03-04T18:53:39.340Z,102545.28
2023-03-04T18:56:16.968Z,102555.25
2023-03-04T18:58:47.210Z,102556.97
2023-03-04T19:01:16.882Z,102553.44
2023-03-04T19:03:44.795Z,102548.19
2023-03-04T19:06:11.856Z,102549.97
2023-03-04T19:08:38.407Z,102545.59
2023-03-04T19:11:06.264Z,102540.34
2023-03-04T19:13:33.590Z,102535.00
2023-03-04T19:16:00.287Z,102537.69
2023-03-04T19:18:29.121Z,102535.94
2023-03-04T19:20:55.784Z,102530.69
2023-03-04T19:23:22.323Z,102524.50
2023-03-04T19:25:48.870Z,102520.97
2023-03-04T19:28:15.351Z,102532.63
2023-03-04T19:30:42.194Z,102523.84
2023-03-04T19:33:10.251Z,102530.03
2023-03-04T19:35:40.831Z,102527.47
2023-03-04T19:38:07.631Z,102527.47
2023-03-04T19:40:34.278Z,102532.91
2023-03-04T19:43:00.943Z,102527.56
2023-03-04T19:45:27.417Z,102527.56
2023-03-04T19:47:53.980Z,102532.19
2023-03-04T19:50:20.528Z,102530.34
2023-03-04T19:52:47.132Z,102533.16
2023-03-04T19:55:13.769Z,102541.19
2023-03-04T19:57:42.257Z,102539.44
2023-03-04T20:00:10.888Z,102534.19
2023-03-04T20:02:37.816Z,102536.88
2023-03-04T20:05:04.994Z,102544.06
2023-03-04T20:07:31.574Z,102551.22
2023-03-04T20:09:58.254Z,102547.69
2023-03-04T20:12:24.869Z,102533.47
2023-03-04T20:14:51.489Z,102543.28
2023-03-04T20:17:18.021Z,102530.00
2023-03-04T20:19:44.583Z,102535.38
2023-03-04T20:22:13.311Z,102540.84
2023-03-04T20:24:39.959Z,102539.00
2023-03-04T20:27:06.551Z,102545.34
2023-03-04T20:29:33.028Z,102537.38
2023-03-04T20:31:59.687Z,102542.72
2023-03-04T20:34:27.117Z,102542.84
2023-03-04T20:36:53.777Z,102544.66
2023-03-04T20:39:29.216Z,102547.34
2023-03-04T20:41:58.608Z,102552.69
2023-03-04T20:44:25.345Z,102545.59
2023-03-04T20:46:52.310Z,102548.28
2023-03-04T20:49:23.817Z,102542.19
2023-03-04T20:51:52.020Z,102539.50
2023-03-04T20:54:18.628Z,102535.97
2023-03-04T20:56:45.225Z,102533.31
2023-03-04T20:59:12.539Z,102533.38
2023-03-04T21:01:41.318Z,102525.34
2023-03-04T21:04:07.987Z,102527.19
2023-03-04T21:06:34.809Z,102527.19
2023-03-04T21:09:06.586Z,102526.44
2023-03-04T21:11:40.101Z,102526.31
2023-03-04T21:14:19.527Z,102513.91
2023-03-04T21:16:46.520Z,102515.75
2023-03-04T21:19:16.861Z,102514.00
2023-03-04T21:21:43.844Z,102515.81
2023-03-04T21:24:14.985Z,102517.66
2023-03-04T21:26:45.134Z,102515.06
2023-03-04T21:29:12.844Z,102507.91
2023-03-04T21:31:43.338Z,102510.69
2023-03-04T21:34:22.739Z,102507.13
2023-03-04T21:36:49.371Z,102511.63
2023-03-04T21:39:19.170Z,102508.97
2023-03-04T21:41:46.273Z,102509.91
2023-03-04T21:44:22.722Z,102504.69
2023-03-04T21:46:56.467Z,102510.88
2023-03-04T21:49:23.097Z,102510.13
2023-03-04T21:51:49.661Z,102507.44
2023-03-04T21:54:16.496Z,102513.75
2023-03-04T21:56:43.155Z,102511.09
2023-03-04T21:59:12.995Z,102512.06
2023-03-04T22:01:40.818Z,102511.19
2023-03-04T22:04:07.976Z,102504.22
2023-03-04T22:06:34.657Z,102497.06
2023-03-04T22:09:02.552Z,102492.66
2023-03-04T22:11:30.081Z,102487.44
2023-03-04T22:13:58.889Z,102486.53
2023-03-04T22:16:26.099Z,102490.19
2023-03-04T22:18:52.838Z,102489.34
2023-03-04T22:21:20.859Z,102492.97
2023-03-04T22:23:47.821Z,102486.78
2023-03-04T22:26:20.847Z,102490.38
2023-03-04T22:28:47.859Z,102490.50
2023-03-04T22:31:18.256Z,102486.09
2023-03-04T22:33:45.540Z,102481.63
2023-03-04T22:36:12.842Z,102479.91
2023-03-04T22:38:39.858Z,102480.00
2023-03-04T22:41:13.588Z,102479.13
2023-03-04T22:43:40.173Z,102471.22
2023-03-04T22:46:21.948Z,102471.13
2023-03-04T22:48:49.968Z,102472.06
2023-03-04T22:51:16.730Z,102473.03
2023-03-04T22:53:43.571Z,102466.84
2023-03-04T22:56:11.626Z,102473.13
2023-03-04T22:58:38.535Z,102472.28
2023-03-04T23:01:05.326Z,102467.03
2023-03-04T23:03:32.258Z,102459.94
2023-03-04T23:06:06.211Z,102453.84
2023-03-04T23:08:34.538Z,102453.84
2023-03-04T23:11:01.360Z,102446.81
2023-03-04T23:13:29.257Z,102436.97
2023-03-04T23:15:55.782Z,102436.97
2023-03-04T23:18:22.307Z,102438.78
2023-03-04T23:20:48.834Z,102436.09
2023-03-04T23:23:15.396Z,102436.09
2023-03-04T23:25:41.987Z,102429.91
2023-03-04T23:28:08.537Z,102429.91
2023-03-04T23:30:35.370Z,102428.09
2023-03-04T23:33:02.050Z,102428.16
2023-03-04T23:35:28.660Z,102425.50
2023-03-04T23:37:55.474Z,102424.63
2023-03-04T23:40:21.977Z,102429.97
2023-03-04T23:42:48.447Z,102422.94
2023-03-04T23:45:15.000Z,102426.47
2023-03-04T23:47:41.507Z,102418.53
2023-03-04T23:50:08.929Z,102421.22
2023-03-04T23:52:35.462Z,102410.53
2023-03-04T23:55:02.049Z,102406.13
2023-03-04T23:57:28.591Z,102404.41
2023-03-04T23:59:55.065Z,102397.25
